Terminal Aerodrome Forecast
Issued by NWS

Home | Current Version | Previous Version | Text Only | Print | Product List | Glossary Off
Versions: 1 2 3 4 5 6 7 8 9 10 11 12 13 14 15 16 17

973
FTUS43 KMPX 211732
TAFAXN
TAF
KAXN 211732Z 2118/2218 18015G23KT P6SM OVC015
     FM212000 20013KT 6SM -SHRA VCTS SCT010 OVC020CB
     FM212200 24012KT P6SM VCSH SCT025 OVC045
     FM220000 27012KT P6SM BKN090
     FM220500 27011KT P6SM SCT250=

USA.gov is the U.S. government's official web portal to all federal, state and local government web resources and services.